sensor_id;sensor_type;location;lat;lon;timestamp;pressure;altitude;pressure_sealevel;temperature;humidity
34925;BME280;21130;51.728;8.748;2023-06-26T00:01:03;100178.34;;;20.96;100.00
34925;BME280;21130;51.728;8.748;2023-06-26T00:03:30;100171.88;;;20.95;100.00
34925;BME280;21130;51.728;8.748;2023-06-26T00:05:59;100167.03;;;20.96;100.00
34925;BME280;21130;51.728;8.748;2023-06-26T00:08:26;100162.44;;;21.00;100.00
34925;BME280;21130;51.728;8.748;2023-06-26T00:10:54;100163.78;;;21.02;100.00
34925;BME280;21130;51.728;8.748;2023-06-26T00:13:22;100165.91;;;20.97;100.00
34925;BME280;21130;51.728;8.748;2023-06-26T00:15:48;100163.84;;;20.88;100.00
34925;BME280;21130;51.728;8.748;2023-06-26T00:18:15;100157.34;;;20.79;100.00
34925;BME280;21130;51.728;8.748;2023-06-26T00:20:41;100171.19;;;20.67;100.00
34925;BME280;21130;51.728;8.748;2023-06-26T00:23:08;100159.38;;;20.65;100.00
34925;BME280;21130;51.728;8.748;2023-06-26T00:25:34;100170.19;;;20.49;100.00
34925;BME280;21130;51.728;8.748;2023-06-26T00:28:03;100158.97;;;20.35;100.00
34925;BME280;21130;51.728;8.748;2023-06-26T00:30:30;100170.78;;;20.23;100.00
34925;BME280;21130;51.728;8.748;2023-06-26T00:32:56;100162.56;;;20.13;100.00
34925;BME280;21130;51.728;8.748;2023-06-26T00:35:23;100153.22;;;20.04;100.00
34925;BME280;21130;51.728;8.748;2023-06-26T00:37:49;100157.22;;;19.89;100.00
34925;BME280;21130;51.728;8.748;2023-06-26T00:40:16;100152.19;;;19.86;100.00
34925;BME280;21130;51.728;8.748;2023-06-26T00:42:42;100146.56;;;19.86;100.00
34925;BME280;21130;51.728;8.748;2023-06-26T00:45:10;100145.75;;;19.85;100.00
34925;BME280;21130;51.728;8.748;2023-06-26T00:47:37;100140.53;;;19.93;100.00
34925;BME280;21130;51.728;8.748;2023-06-26T00:50:04;100142.78;;;20.04;100.00
34925;BME280;21130;51.728;8.748;2023-06-26T00:52:31;100139.22;;;20.13;100.00
34925;BME280;21130;51.728;8.748;2023-06-26T00:54:58;100141.38;;;20.16;100.00
34925;BME280;21130;51.728;8.748;2023-06-26T00:57:24;100137.16;;;20.04;100.00
34925;BME280;21130;51.728;8.748;2023-06-26T00:59:51;100135.47;;;20.03;100.00
34925;BME280;21130;51.728;8.748;2023-06-26T01:02:19;100132.88;;;20.07;100.00
34925;BME280;21130;51.728;8.748;2023-06-26T01:04:46;100123.81;;;19.96;100.00
34925;BME280;21130;51.728;8.748;2023-06-26T01:07:14;100117.56;;;19.99;100.00
34925;BME280;21130;51.728;8.748;2023-06-26T01:09:41;100111.28;;;20.02;100.00
34925;BME280;21130;51.728;8.748;2023-06-26T01:12:08;100116.53;;;19.95;100.00
34925;BME280;21130;51.728;8.748;2023-06-26T01:14:34;100113.19;;;19.93;100.00
34925;BME280;21130;51.728;8.748;2023-06-26T01:17:02;100113.00;;;19.90;100.00
34925;BME280;21130;51.728;8.748;2023-06-26T01:19:31;100112.41;;;19.79;100.00
34925;BME280;21130;51.728;8.748;2023-06-26T01:22:02;100115.00;;;19.75;100.00
34925;BME280;21130;51.728;8.748;2023-06-26T01:24:42;100111.88;;;19.77;100.00
34925;BME280;21130;51.728;8.748;2023-06-26T01:27:12;100106.03;;;19.73;100.00
34925;BME280;21130;51.728;8.748;2023-06-26T01:29:41;100108.13;;;19.68;100.00
34925;BME280;21130;51.728;8.748;2023-06-26T01:32:12;100099.06;;;19.57;100.00
34925;BME280;21130;51.728;8.748;2023-06-26T01:34:38;100109.09;;;19.49;100.00
34925;BME280;21130;51.728;8.748;2023-06-26T01:37:05;100100.75;;;19.44;100.00
34925;BME280;21130;51.728;8.748;2023-06-26T01:39:31;100100.44;;;19.32;100.00
34925;BME280;21130;51.728;8.748;2023-06-26T01:41:57;100093.47;;;19.29;100.00
34925;BME280;21130;51.728;8.748;2023-06-26T01:44:29;100086.56;;;19.35;100.00
34925;BME280;21130;51.728;8.748;2023-06-26T01:47:01;100087.84;;;19.29;100.00
34925;BME280;21130;51.728;8.748;2023-06-26T01:49:40;100085.53;;;19.31;100.00
34925;BME280;21130;51.728;8.748;2023-06-26T01:52:13;100087.84;;;19.29;100.00
34925;BME280;21130;51.728;8.748;2023-06-26T01:54:47;100091.69;;;19.19;100.00
34925;BME280;21130;51.728;8.748;2023-06-26T01:57:17;100083.13;;;19.11;100.00
34925;BME280;21130;51.728;8.748;2023-06-26T01:59:46;100079.09;;;19.17;100.00
34925;BME280;21130;51.728;8.748;2023-06-26T02:02:13;100087.53;;;19.17;100.00
34925;BME280;21130;51.728;8.748;2023-06-26T02:04:40;100083.25;;;19.19;100.00
34925;BME280;21130;51.728;8.748;2023-06-26T02:07:07;100083.88;;;19.16;100.00
34925;BME280;21130;51.728;8.748;2023-06-26T02:09:34;100084.19;;;19.15;100.00
34925;BME280;21130;51.728;8.748;2023-06-26T02:12:01;100076.91;;;19.14;100.00
34925;BME280;21130;51.728;8.748;2023-06-26T02:14:27;100076.47;;;19.20;100.00
34925;BME280;21130;51.728;8.748;2023-06-26T02:16:55;100072.00;;;19.19;100.00
34925;BME280;21130;51.728;8.748;2023-06-26T02:19:21;100074.59;;;19.30;100.00
34925;BME280;21130;51.728;8.748;2023-06-26T02:21:48;100075.75;;;19.29;100.00
34925;BME280;21130;51.728;8.748;2023-06-26T02:24:15;100061.56;;;19.20;100.00
34925;BME280;21130;51.728;8.748;2023-06-26T02:26:41;100064.78;;;19.27;100.00
34925;BME280;21130;51.728;8.748;2023-06-26T02:29:08;100056.34;;;19.27;100.00
34925;BME280;21130;51.728;8.748;2023-06-26T02:31:34;100062.41;;;19.34;100.00
34925;BME280;21130;51.728;8.748;2023-06-26T02:34:02;100057.41;;;19.31;100.00
34925;BME280;21130;51.728;8.748;2023-06-26T02:36:29;100059.47;;;19.26;100.00
34925;BME280;21130;51.728;8.748;2023-06-26T02:38:55;100053.44;;;19.32;100.00
34925;BME280;21130;51.728;8.748;2023-06-26T02:41:22;100054.69;;;19.26;100.00
34925;BME280;21130;51.728;8.748;2023-06-26T02:43:48;100056.56;;;19.17;100.00
34925;BME280;21130;51.728;8.748;2023-06-26T02:46:15;100054.69;;;19.12;100.00
34925;BME280;21130;51.728;8.748;2023-06-26T02:48:41;100057.50;;;19.12;100.00
34925;BME280;21130;51.728;8.748;2023-06-26T02:51:09;100053.66;;;19.22;100.00
34925;BME280;21130;51.728;8.748;2023-06-26T02:53:35;100040.31;;;19.28;100.00
34925;BME280;21130;51.728;8.748;2023-06-26T02:56:01;100054.06;;;19.29;100.00
34925;BME280;21130;51.728;8.748;2023-06-26T02:58:28;100043.34;;;19.31;100.00
34925;BME280;21130;51.728;8.748;2023-06-26T03:00:54;100039.28;;;19.24;100.00
34925;BME280;21130;51.728;8.748;2023-06-26T03:03:21;100030.94;;;19.18;100.00
34925;BME280;21130;51.728;8.748;2023-06-26T03:05:48;100041.25;;;19.23;100.00
34925;BME280;21130;51.728;8.748;2023-06-26T03:08:15;100035.09;;;19.21;100.00
34925;BME280;21130;51.728;8.748;2023-06-26T03:10:42;100035.31;;;19.25;100.00
34925;BME280;21130;51.728;8.748;2023-06-26T03:13:09;100038.88;;;19.16;100.00
34925;BME280;21130;51.728;8.748;2023-06-26T03:15:35;100026.47;;;19.17;100.00
34925;BME280;21130;51.728;8.748;2023-06-26T03:18:02;100031.03;;;19.13;100.00
34925;BME280;21130;51.728;8.748;2023-06-26T03:20:28;100039.09;;;19.06;100.00
34925;BME280;21130;51.728;8.748;2023-06-26T03:22:55;100029.06;;;19.00;100.00
34925;BME280;21130;51.728;8.748;2023-06-26T03:25:22;100033.66;;;18.96;100.00
34925;BME280;21130;51.728;8.748;2023-06-26T03:27:49;100037.41;;;18.91;100.00
34925;BME280;21130;51.728;8.748;2023-06-26T03:30:16;100028.22;;;18.86;100.00
34925;BME280;21130;51.728;8.748;2023-06-26T03:32:42;100028.75;;;18.74;100.00
34925;BME280;21130;51.728;8.748;2023-06-26T03:35:09;100030.50;;;18.70;100.00
34925;BME280;21130;51.728;8.748;2023-06-26T03:37:35;100035.69;;;18.63;100.00
34925;BME280;21130;51.728;8.748;2023-06-26T03:40:02;100033.84;;;18.72;100.00
34925;BME280;21130;51.728;8.748;2023-06-26T03:42:31;100029.66;;;18.69;100.00
34925;BME280;21130;51.728;8.748;2023-06-26T03:44:58;100050.47;;;18.68;100.00
34925;BME280;21130;51.728;8.748;2023-06-26T03:47:24;100039.84;;;18.65;100.00
34925;BME280;21130;51.728;8.748;2023-06-26T03:49:51;100025.78;;;18.65;100.00
34925;BME280;21130;51.728;8.748;2023-06-26T03:52:17;100035.69;;;18.63;100.00
34925;BME280;21130;51.728;8.748;2023-06-26T03:54:44;100035.28;;;18.69;100.00
34925;BME280;21130;51.728;8.748;2023-06-26T03:57:10;100028.31;;;18.67;100.00
34925;BME280;21130;51.728;8.748;2023-06-26T03:59:38;100024.44;;;18.63;100.00
34925;BME280;21130;51.728;8.748;2023-06-26T04:02:04;100027.97;;;18.68;100.00
34925;BME280;21130;51.728;8.748;2023-06-26T04:04:31;100025.63;;;18.75;100.00
34925;BME280;21130;51.728;8.748;2023-06-26T04:06:57;100029.28;;;18.76;100.00
34925;BME280;21130;51.728;8.748;2023-06-26T04:09:24;100029.66;;;18.69;100.00
34925;BME280;21130;51.728;8.748;2023-06-26T04:11:51;100027.84;;;18.78;100.00
34925;BME280;21130;51.728;8.748;2023-06-26T04:14:17;100027.84;;;18.78;100.00
34925;BME280;21130;51.728;8.748;2023-06-26T04:16:45;100032.72;;;18.87;100.00
34925;BME280;21130;51.728;8.748;2023-06-26T04:19:12;100034.72;;;18.86;100.00
34925;BME280;21130;51.728;8.748;2023-06-26T04:21:38;100031.28;;;18.89;100.00
34925;BME280;21130;51.728;8.748;2023-06-26T04:24:05;100034.28;;;18.93;100.00
34925;BME280;21130;51.728;8.748;2023-06-26T04:26:32;100034.06;;;19.03;100.00
34925;BME280;21130;51.728;8.748;2023-06-26T04:28:58;100036.16;;;19.11;100.00
34925;BME280;21130;51.728;8.748;2023-06-26T04:31:25;100032.50;;;19.25;100.00
34925;BME280;21130;51.728;8.748;2023-06-26T04:33:53;100034.25;;;19.34;100.00
34925;BME280;21130;51.728;8.748;2023-06-26T04:36:20;100036.09;;;19.53;100.00
34925;BME280;21130;51.728;8.748;2023-06-26T04:38:47;100033.38;;;19.61;100.00
34925;BME280;21130;51.728;8.748;2023-06-26T04:41:15;100031.47;;;19.71;100.00
34925;BME280;21130;51.728;8.748;2023-06-26T04:43:41;100030.34;;;19.72;100.00
34925;BME280;21130;51.728;8.748;2023-06-26T04:46:07;100033.03;;;19.77;100.00
34925;BME280;21130;51.728;8.748;2023-06-26T04:48:34;100035.22;;;19.80;100.00
34925;BME280;21130;51.728;8.748;2023-06-26T04:51:02;100030.22;;;19.77;100.00
34925;BME280;21130;51.728;8.748;2023-06-26T04:53:28;100028.53;;;19.76;100.00
34925;BME280;21130;51.728;8.748;2023-06-26T04:55:54;100034.28;;;19.71;100.00
34925;BME280;21130;51.728;8.748;2023-06-26T04:58:21;100029.69;;;19.75;100.00
34925;BME280;21130;51.728;8.748;2023-06-26T05:00:49;100027.41;;;19.77;100.00
34925;BME280;21130;51.728;8.748;2023-06-26T05:03:17;100034.38;;;19.79;100.00
34925;BME280;21130;51.728;8.748;2023-06-26T05:05:43;100023.31;;;19.83;100.00
34925;BME280;21130;51.728;8.748;2023-06-26T05:08:15;100026.50;;;19.90;100.00
34925;BME280;21130;51.728;8.748;2023-06-26T05:10:43;100028.03;;;19.96;100.00
34925;BME280;21130;51.728;8.748;2023-06-26T05:13:10;100032.22;;;19.99;100.00
34925;BME280;21130;51.728;8.748;2023-06-26T05:15:36;100037.09;;;20.07;100.00
34925;BME280;21130;51.728;8.748;2023-06-26T05:18:03;100031.84;;;20.14;100.00
34925;BME280;21130;51.728;8.748;2023-06-26T05:20:30;100018.88;;;20.36;100.00
34925;BME280;21130;51.728;8.748;2023-06-26T05:22:56;100026.09;;;20.50;100.00
34925;BME280;21130;51.728;8.748;2023-06-26T05:25:25;100024.06;;;20.74;100.00
34925;BME280;21130;51.728;8.748;2023-06-26T05:27:52;100034.59;;;20.82;100.00
34925;BME280;21130;51.728;8.748;2023-06-26T05:30:20;100026.03;;;21.04;100.00
34925;BME280;21130;51.728;8.748;2023-06-26T05:32:47;100027.75;;;21.23;100.00
34925;BME280;21130;51.728;8.748;2023-06-26T05:35:15;100031.81;;;21.48;100.00
34925;BME280;21130;51.728;8.748;2023-06-26T05:37:43;100030.50;;;21.71;100.00
34925;BME280;21130;51.728;8.748;2023-06-26T05:40:14;100035.16;;;21.93;100.00
34925;BME280;21130;51.728;8.748;2023-06-26T05:42:42;100038.63;;;22.16;100.00
34925;BME280;21130;51.728;8.748;2023-06-26T05:45:09;100036.13;;;22.41;100.00
34925;BME280;21130;51.728;8.748;2023-06-26T05:47:36;100029.06;;;22.64;100.00
34925;BME280;21130;51.728;8.748;2023-06-26T05:50:03;100027.34;;;22.81;100.00
34925;BME280;21130;51.728;8.748;2023-06-26T05:52:31;100029.31;;;22.98;100.00
34925;BME280;21130;51.728;8.748;2023-06-26T05:54:57;100035.72;;;23.16;100.00
34925;BME280;21130;51.728;8.748;2023-06-26T05:57:26;100035.13;;;23.31;100.00
34925;BME280;21130;51.728;8.748;2023-06-26T05:59:55;100040.16;;;23.55;100.00
34925;BME280;21130;51.728;8.748;2023-06-26T06:02:22;100041.19;;;23.71;100.00
34925;BME280;21130;51.728;8.748;2023-06-26T06:04:49;100048.28;;;23.86;100.00
34925;BME280;21130;51.728;8.748;2023-06-26T06:07:15;100036.66;;;24.00;96.86
34925;BME280;21130;51.728;8.748;2023-06-26T06:09:41;100049.00;;;24.17;98.93
34925;BME280;21130;51.728;8.748;2023-06-26T06:12:08;100046.56;;;24.27;100.00
34925;BME280;21130;51.728;8.748;2023-06-26T06:14:35;100039.38;;;24.30;95.54
34925;BME280;21130;51.728;8.748;2023-06-26T06:17:03;100060.91;;;24.31;100.00
34925;BME280;21130;51.728;8.748;2023-06-26T06:19:29;100055.00;;;24.36;97.24
34925;BME280;21130;51.728;8.748;2023-06-26T06:21:56;100049.81;;;24.38;96.49
34925;BME280;21130;51.728;8.748;2023-06-26T06:24:22;100055.50;;;24.38;99.46
34925;BME280;21130;51.728;8.748;2023-06-26T06:26:48;100055.19;;;24.52;96.33
34925;BME280;21130;51.728;8.748;2023-06-26T06:29:15;100068.34;;;24.56;98.92
34925;BME280;21130;51.728;8.748;2023-06-26T06:31:41;100068.22;;;24.65;99.03
34925;BME280;21130;51.728;8.748;2023-06-26T06:34:10;100069.66;;;24.59;99.49
34925;BME280;21130;51.728;8.748;2023-06-26T06:36:37;100073.41;;;24.51;98.63
34925;BME280;21130;51.728;8.748;2023-06-26T06:39:04;100083.56;;;24.52;100.00
34925;BME280;21130;51.728;8.748;2023-06-26T06:41:30;100078.19;;;24.17;97.92
34925;BME280;21130;51.728;8.748;2023-06-26T06:43:58;100091.47;;;24.04;100.00
34925;BME280;21130;51.728;8.748;2023-06-26T06:46:24;100097.03;;;24.01;100.00
34925;BME280;21130;51.728;8.748;2023-06-26T06:48:52;100095.34;;;23.79;100.00
34925;BME280;21130;51.728;8.748;2023-06-26T06:51:20;100091.06;;;23.93;100.00
34925;BME280;21130;51.728;8.748;2023-06-26T06:53:46;100102.28;;;24.11;100.00
34925;BME280;21130;51.728;8.748;2023-06-26T06:56:12;100101.44;;;24.31;100.00
34925;BME280;21130;51.728;8.748;2023-06-26T06:58:39;100099.28;;;24.49;100.00
34925;BME280;21130;51.728;8.748;2023-06-26T07:01:07;100101.47;;;24.44;100.00
34925;BME280;21130;51.728;8.748;2023-06-26T07:03:34;100092.50;;;24.42;100.00
34925;BME280;21130;51.728;8.748;2023-06-26T07:06:01;100100.28;;;24.45;100.00
34925;BME280;21130;51.728;8.748;2023-06-26T07:08:29;100102.00;;;24.46;100.00
34925;BME280;21130;51.728;8.748;2023-06-26T07:10:56;100118.56;;;24.35;100.00
34925;BME280;21130;51.728;8.748;2023-06-26T07:13:22;100124.31;;;24.47;100.00
34925;BME280;21130;51.728;8.748;2023-06-26T07:15:49;100124.22;;;24.35;100.00
34925;BME280;21130;51.728;8.748;2023-06-26T07:18:15;100128.19;;;24.64;100.00
34925;BME280;21130;51.728;8.748;2023-06-26T07:20:41;100119.47;;;24.69;100.00
34925;BME280;21130;51.728;8.748;2023-06-26T07:23:08;100124.72;;;24.91;100.00
34925;BME280;21130;51.728;8.748;2023-06-26T07:25:36;100121.59;;;24.72;100.00
34925;BME280;21130;51.728;8.748;2023-06-26T07:28:02;100123.38;;;24.76;100.00
34925;BME280;21130;51.728;8.748;2023-06-26T07:30:29;100123.59;;;24.71;100.00
34925;BME280;21130;51.728;8.748;2023-06-26T07:32:55;100136.09;;;24.58;100.00
34925;BME280;21130;51.728;8.748;2023-06-26T07:35:22;100139.75;;;24.92;100.00
34925;BME280;21130;51.728;8.748;2023-06-26T07:37:48;100142.28;;;24.72;100.00
34925;BME280;21130;51.728;8.748;2023-06-26T07:40:14;100142.44;;;24.76;100.00
34925;BME280;21130;51.728;8.748;2023-06-26T07:42:44;100149.56;;;24.61;100.00
34925;BME280;21130;51.728;8.748;2023-06-26T07:45:11;100140.78;;;24.87;100.00
34925;BME280;21130;51.728;8.748;2023-06-26T07:47:39;100147.94;;;25.06;100.00
34925;BME280;21130;51.728;8.748;2023-06-26T07:50:06;100147.31;;;25.21;100.00
34925;BME280;21130;51.728;8.748;2023-06-26T07:52:34;100151.06;;;25.25;100.00
34925;BME280;21130;51.728;8.748;2023-06-26T07:55:00;100141.19;;;25.10;100.00
34925;BME280;21130;51.728;8.748;2023-06-26T07:57:28;100135.16;;;25.12;100.00
34925;BME280;21130;51.728;8.748;2023-06-26T07:59:56;100141.75;;;25.37;100.00
34925;BME280;21130;51.728;8.748;2023-06-26T08:02:22;100134.75;;;25.22;100.00
34925;BME280;21130;51.728;8.748;2023-06-26T08:04:49;100143.63;;;25.45;100.00
34925;BME280;21130;51.728;8.748;2023-06-26T08:07:15;100138.09;;;25.36;100.00
34925;BME280;21130;51.728;8.748;2023-06-26T08:09:42;100153.47;;;25.48;100.00
34925;BME280;21130;51.728;8.748;2023-06-26T08:12:08;100160.09;;;25.39;100.00
34925;BME280;21130;51.728;8.748;2023-06-26T08:14:34;100156.06;;;25.28;100.00
34925;BME280;21130;51.728;8.748;2023-06-26T08:17:02;100163.69;;;25.03;100.00
34925;BME280;21130;51.728;8.748;2023-06-26T08:19:29;100166.56;;;24.82;100.00
34925;BME280;21130;51.728;8.748;2023-06-26T08:21:55;100183.25;;;24.63;100.00
34925;BME280;21130;51.728;8.748;2023-06-26T08:24:21;100181.94;;;24.60;100.00
34925;BME280;21130;51.728;8.748;2023-06-26T08:26:48;100174.69;;;24.29;100.00
34925;BME280;21130;51.728;8.748;2023-06-26T08:29:15;100187.41;;;24.44;100.00
34925;BME280;21130;51.728;8.748;2023-06-26T08:31:42;100192.19;;;24.31;100.00
34925;BME280;21130;51.728;8.748;2023-06-26T08:34:10;100180.97;;;24.14;100.00
34925;BME280;21130;51.728;8.748;2023-06-26T08:36:36;100197.50;;;23.82;100.00
34925;BME280;21130;51.728;8.748;2023-06-26T08:39:03;100194.88;;;23.68;100.00
34925;BME280;21130;51.728;8.748;2023-06-26T08:41:55;100210.94;;;23.56;100.00
34925;BME280;21130;51.728;8.748;2023-06-26T08:44:22;100211.31;;;23.45;100.00
34925;BME280;21130;51.728;8.748;2023-06-26T08:46:50;100199.56;;;23.26;100.00
34925;BME280;21130;51.728;8.748;2023-06-26T08:49:21;100209.81;;;23.48;100.00
34925;BME280;21130;51.728;8.748;2023-06-26T08:51:52;100207.41;;;23.59;100.00
34925;BME280;21130;51.728;8.748;2023-06-26T08:54:28;100201.22;;;24.04;100.00
34925;BME280;21130;51.728;8.748;2023-06-26T08:57:19;100199.38;;;24.29;100.00
34925;BME280;21130;51.728;8.748;2023-06-26T08:59:47;100195.84;;;24.74;100.00
34925;BME280;21130;51.728;8.748;2023-06-26T09:02:14;100189.88;;;24.88;100.00
34925;BME280;21130;51.728;8.748;2023-06-26T09:04:42;100182.84;;;25.06;100.00
34925;BME280;21130;51.728;8.748;2023-06-26T09:07:08;100198.75;;;25.19;100.00
34925;BME280;21130;51.728;8.748;2023-06-26T09:09:35;100197.31;;;25.13;100.00
34925;BME280;21130;51.728;8.748;2023-06-26T09:12:02;100191.22;;;25.02;100.00
34925;BME280;21130;51.728;8.748;2023-06-26T09:14:29;100191.44;;;24.97;100.00
34925;BME280;21130;51.728;8.748;2023-06-26T09:16:58;100211.13;;;24.48;100.00
34925;BME280;21130;51.728;8.748;2023-06-26T09:19:25;100227.66;;;24.37;100.00
34925;BME280;21130;51.728;8.748;2023-06-26T09:21:54;100232.53;;;23.78;100.00
34925;BME280;21130;51.728;8.748;2023-06-26T09:24:21;100235.31;;;23.39;100.00
34925;BME280;21130;51.728;8.748;2023-06-26T09:26:48;100237.22;;;23.18;100.00
34925;BME280;21130;51.728;8.748;2023-06-26T09:29:17;100239.72;;;23.11;100.00
34925;BME280;21130;51.728;8.748;2023-06-26T09:31:43;100236.56;;;23.03;100.00
34925;BME280;21130;51.728;8.748;2023-06-26T09:34:10;100241.84;;;23.31;100.00
34925;BME280;21130;51.728;8.748;2023-06-26T09:36:37;100239.03;;;23.14;100.00
34925;BME280;21130;51.728;8.748;2023-06-26T09:39:06;100236.53;;;23.21;100.00
34925;BME280;21130;51.728;8.748;2023-06-26T09:41:36;100236.25;;;23.61;100.00
34925;BME280;21130;51.728;8.748;2023-06-26T09:44:05;100231.31;;;24.17;100.00
34925;BME280;21130;51.728;8.748;2023-06-26T09:46:51;100237.06;;;24.59;100.00
34925;BME280;21130;51.728;8.748;2023-06-26T09:49:35;100228.06;;;25.11;100.00
34925;BME280;21130;51.728;8.748;2023-06-26T09:52:19;100231.66;;;25.20;100.00
34925;BME280;21130;51.728;8.748;2023-06-26T09:55:10;100215.72;;;25.40;100.00
34925;BME280;21130;51.728;8.748;2023-06-26T09:57:38;100221.72;;;26.21;100.00
34925;BME280;21130;51.728;8.748;2023-06-26T10:00:05;100225.88;;;25.87;100.00
34925;BME280;21130;51.728;8.748;2023-06-26T10:02:33;100217.56;;;25.82;100.00
34925;BME280;21130;51.728;8.748;2023-06-26T10:05:00;100228.97;;;25.94;100.00
34925;BME280;21130;51.728;8.748;2023-06-26T10:07:26;100235.34;;;25.21;100.00
34925;BME280;21130;51.728;8.748;2023-06-26T10:09:55;100228.00;;;25.20;100.00
34925;BME280;21130;51.728;8.748;2023-06-26T10:12:26;100240.91;;;24.96;100.00
34925;BME280;21130;51.728;8.748;2023-06-26T10:14:55;100236.03;;;24.64;100.00
34925;BME280;21130;51.728;8.748;2023-06-26T10:17:25;100236.06;;;24.55;100.00
34925;BME280;21130;51.728;8.748;2023-06-26T10:19:55;100239.81;;;24.47;100.00
34925;BME280;21130;51.728;8.748;2023-06-26T10:22:27;100236.44;;;24.45;100.00
34925;BME280;21130;51.728;8.748;2023-06-26T10:24:55;100235.22;;;24.04;100.00
34925;BME280;21130;51.728;8.748;2023-06-26T10:27:27;100244.56;;;24.04;100.00
34925;BME280;21130;51.728;8.748;2023-06-26T10:29:56;100241.81;;;24.17;100.00
34925;BME280;21130;51.728;8.748;2023-06-26T10:32:26;100240.38;;;24.10;100.00
34925;BME280;21130;51.728;8.748;2023-06-26T10:34:53;100229.31;;;23.88;100.00
34925;BME280;21130;51.728;8.748;2023-06-26T10:37:21;100239.56;;;23.63;100.00
34925;BME280;21130;51.728;8.748;2023-06-26T10:40:07;100237.16;;;23.82;100.00
34925;BME280;21130;51.728;8.748;2023-06-26T10:42:36;100237.28;;;24.24;100.00
34925;BME280;21130;51.728;8.748;2023-06-26T10:45:09;100234.81;;;24.86;100.00
34925;BME280;21130;51.728;8.748;2023-06-26T10:47:36;100241.56;;;25.14;100.00
34925;BME280;21130;51.728;8.748;2023-06-26T10:50:17;100238.41;;;24.95;100.00
34925;BME280;21130;51.728;8.748;2023-06-26T10:52:44;100244.38;;;24.81;100.00
34925;BME280;21130;51.728;8.748;2023-06-26T10:55:10;100249.03;;;24.86;100.00
34925;BME280;21130;51.728;8.748;2023-06-26T10:57:38;100249.91;;;24.77;100.00
34925;BME280;21130;51.728;8.748;2023-06-26T11:00:09;100257.63;;;23.97;100.00
34925;BME280;21130;51.728;8.748;2023-06-26T11:02:47;100243.03;;;23.77;100.00
34925;BME280;21130;51.728;8.748;2023-06-26T11:05:23;100251.63;;;23.89;100.00
34925;BME280;21130;51.728;8.748;2023-06-26T11:08:03;100258.78;;;23.96;100.00
34925;BME280;21130;51.728;8.748;2023-06-26T11:10:30;100266.59;;;23.60;100.00
34925;BME280;21130;51.728;8.748;2023-06-26T11:13:16;100268.53;;;23.77;100.00
34925;BME280;21130;51.728;8.748;2023-06-26T11:15:43;100259.56;;;23.75;100.00
34925;BME280;21130;51.728;8.748;2023-06-26T11:18:10;100258.53;;;23.80;100.00
34925;BME280;21130;51.728;8.748;2023-06-26T11:20:38;100272.09;;;24.04;100.00
34925;BME280;21130;51.728;8.748;2023-06-26T11:23:04;100268.88;;;24.35;100.00
34925;BME280;21130;51.728;8.748;2023-06-26T11:25:34;100266.00;;;24.23;100.00
34925;BME280;21130;51.728;8.748;2023-06-26T11:28:02;100267.03;;;24.48;100.00
34925;BME280;21130;51.728;8.748;2023-06-26T11:30:30;100257.84;;;25.05;100.00
34925;BME280;21130;51.728;8.748;2023-06-26T11:33:04;100266.91;;;25.65;100.00
34925;BME280;21130;51.728;8.748;2023-06-26T11:35:31;100269.28;;;25.17;100.00
34925;BME280;21130;51.728;8.748;2023-06-26T11:37:58;100265.09;;;25.36;90.17
34925;BME280;21130;51.728;8.748;2023-06-26T11:40:29;100279.25;;;25.69;91.11
34925;BME280;21130;51.728;8.748;2023-06-26T11:42:57;100269.06;;;25.80;88.70
34925;BME280;21130;51.728;8.748;2023-06-26T11:45:23;100264.66;;;25.71;88.18
34925;BME280;21130;51.728;8.748;2023-06-26T11:47:51;100271.09;;;25.80;87.16
34925;BME280;21130;51.728;8.748;2023-06-26T11:50:17;100274.06;;;25.26;87.39
34925;BME280;21130;51.728;8.748;2023-06-26T11:52:44;100279.00;;;25.16;90.23
34925;BME280;21130;51.728;8.748;2023-06-26T11:55:11;100273.72;;;25.85;96.17
34925;BME280;21130;51.728;8.748;2023-06-26T11:57:37;100271.72;;;26.22;86.08
34925;BME280;21130;51.728;8.748;2023-06-26T12:00:11;100273.50;;;26.39;87.63
34925;BME280;21130;51.728;8.748;2023-06-26T12:02:37;100267.81;;;26.92;81.92
34925;BME280;21130;51.728;8.748;2023-06-26T12:05:06;100272.63;;;26.63;81.14
34925;BME280;21130;51.728;8.748;2023-06-26T12:07:33;100277.66;;;25.93;84.54
34925;BME280;21130;51.728;8.748;2023-06-26T12:10:02;100289.66;;;25.19;86.93
34925;BME280;21130;51.728;8.748;2023-06-26T12:12:30;100289.84;;;25.14;93.17
34925;BME280;21130;51.728;8.748;2023-06-26T12:14:58;100304.59;;;25.29;93.81
34925;BME280;21130;51.728;8.748;2023-06-26T12:17:25;100298.38;;;25.48;94.05
34925;BME280;21130;51.728;8.748;2023-06-26T12:19:51;100294.50;;;25.19;91.95
34925;BME280;21130;51.728;8.748;2023-06-26T12:22:19;100300.56;;;25.30;84.31
34925;BME280;21130;51.728;8.748;2023-06-26T12:24:47;100298.13;;;25.40;86.03
34925;BME280;21130;51.728;8.748;2023-06-26T12:27:14;100300.34;;;25.80;79.48
34925;BME280;21130;51.728;8.748;2023-06-26T12:29:47;100285.94;;;26.10;73.93
34925;BME280;21130;51.728;8.748;2023-06-26T12:32:15;100285.59;;;26.36;70.82
34925;BME280;21130;51.728;8.748;2023-06-26T12:34:47;100293.41;;;26.51;67.46
34925;BME280;21130;51.728;8.748;2023-06-26T12:37:14;100300.72;;;26.77;66.92
34925;BME280;21130;51.728;8.748;2023-06-26T12:39:50;100293.31;;;25.53;65.83
34925;BME280;21130;51.728;8.748;2023-06-26T12:42:18;100283.25;;;25.68;65.70
34925;BME280;21130;51.728;8.748;2023-06-26T12:44:44;100287.63;;;25.99;61.83